sensor_id;sensor_type;location;lat;lon;timestamp;P1;durP1;ratioP1;P2;durP2;ratioP2
3543;SDS011;1786;52.870;9.578;2023-03-24T00:01:26;3.13;;;1.80;;
3543;SDS011;1786;52.870;9.578;2023-03-24T00:03:52;1.97;;;1.87;;
3543;SDS011;1786;52.870;9.578;2023-03-24T00:06:19;4.80;;;2.00;;
3543;SDS011;1786;52.870;9.578;2023-03-24T00:08:48;2.30;;;2.10;;
3543;SDS011;1786;52.870;9.578;2023-03-24T00:11:15;4.40;;;2.00;;
3543;SDS011;1786;52.870;9.578;2023-03-24T00:13:43;1.80;;;1.70;;
3543;SDS011;1786;52.870;9.578;2023-03-24T00:16:12;3.17;;;2.10;;
3543;SDS011;1786;52.870;9.578;2023-03-24T00:18:39;2.50;;;2.00;;
3543;SDS011;1786;52.870;9.578;2023-03-24T00:21:06;5.47;;;1.80;;
3543;SDS011;1786;52.870;9.578;2023-03-24T00:23:34;2.10;;;1.90;;
3543;SDS011;1786;52.870;9.578;2023-03-24T00:28:31;2.93;;;2.00;;
3543;SDS011;1786;52.870;9.578;2023-03-24T00:30:59;3.17;;;1.90;;
3543;SDS011;1786;52.870;9.578;2023-03-24T00:33:28;4.23;;;1.53;;
3543;SDS011;1786;52.870;9.578;2023-03-24T00:35:58;5.83;;;2.23;;
3543;SDS011;1786;52.870;9.578;2023-03-24T00:38:25;1.90;;;1.80;;
3543;SDS011;1786;52.870;9.578;2023-03-24T00:40:52;6.00;;;2.63;;
3543;SDS011;1786;52.870;9.578;2023-03-24T00:43:18;2.47;;;2.27;;
3543;SDS011;1786;52.870;9.578;2023-03-24T00:45:45;2.73;;;2.50;;
3543;SDS011;1786;52.870;9.578;2023-03-24T00:48:16;3.17;;;2.00;;
3543;SDS011;1786;52.870;9.578;2023-03-24T00:50:44;3.33;;;1.77;;
3543;SDS011;1786;52.870;9.578;2023-03-24T00:53:12;10.70;;;2.40;;
3543;SDS011;1786;52.870;9.578;2023-03-24T00:55:41;2.30;;;1.80;;
3543;SDS011;1786;52.870;9.578;2023-03-24T00:58:08;1.77;;;1.63;;
3543;SDS011;1786;52.870;9.578;2023-03-24T01:00:34;2.20;;;1.97;;
3543;SDS011;1786;52.870;9.578;2023-03-24T01:03:07;4.70;;;1.83;;
3543;SDS011;1786;52.870;9.578;2023-03-24T01:05:38;2.33;;;1.70;;
3543;SDS011;1786;52.870;9.578;2023-03-24T01:08:05;6.40;;;1.73;;
3543;SDS011;1786;52.870;9.578;2023-03-24T01:10:34;1.63;;;1.53;;
3543;SDS011;1786;52.870;9.578;2023-03-24T01:13:01;2.13;;;1.90;;
3543;SDS011;1786;52.870;9.578;2023-03-24T01:15:32;2.60;;;1.77;;
3543;SDS011;1786;52.870;9.578;2023-03-24T01:17:59;4.33;;;2.23;;
3543;SDS011;1786;52.870;9.578;2023-03-24T01:20:29;4.17;;;2.00;;
3543;SDS011;1786;52.870;9.578;2023-03-24T01:22:59;5.20;;;2.37;;
3543;SDS011;1786;52.870;9.578;2023-03-24T01:25:28;2.20;;;2.10;;
3543;SDS011;1786;52.870;9.578;2023-03-24T01:27:58;4.73;;;2.10;;
3543;SDS011;1786;52.870;9.578;2023-03-24T01:30:38;5.10;;;2.10;;
3543;SDS011;1786;52.870;9.578;2023-03-24T01:33:09;3.03;;;1.63;;
3543;SDS011;1786;52.870;9.578;2023-03-24T01:35:42;3.70;;;1.93;;
3543;SDS011;1786;52.870;9.578;2023-03-24T01:38:26;2.67;;;2.20;;
3543;SDS011;1786;52.870;9.578;2023-03-24T01:40:57;1.67;;;1.27;;
3543;SDS011;1786;52.870;9.578;2023-03-24T01:43:30;3.17;;;2.17;;
3543;SDS011;1786;52.870;9.578;2023-03-24T01:46:12;4.43;;;1.93;;
3543;SDS011;1786;52.870;9.578;2023-03-24T01:48:56;3.10;;;2.03;;
3543;SDS011;1786;52.870;9.578;2023-03-24T01:54:11;3.00;;;1.73;;
3543;SDS011;1786;52.870;9.578;2023-03-24T01:56:46;3.07;;;2.87;;
3543;SDS011;1786;52.870;9.578;2023-03-24T01:59:22;5.70;;;1.80;;
3543;SDS011;1786;52.870;9.578;2023-03-24T02:02:12;7.63;;;2.20;;
3543;SDS011;1786;52.870;9.578;2023-03-24T02:04:53;7.50;;;1.73;;
3543;SDS011;1786;52.870;9.578;2023-03-24T02:07:56;2.97;;;1.77;;
3543;SDS011;1786;52.870;9.578;2023-03-24T02:10:25;3.67;;;1.80;;
3543;SDS011;1786;52.870;9.578;2023-03-24T02:12:55;2.63;;;2.30;;
3543;SDS011;1786;52.870;9.578;2023-03-24T02:15:29;2.53;;;1.80;;
3543;SDS011;1786;52.870;9.578;2023-03-24T02:18:14;1.83;;;1.60;;
3543;SDS011;1786;52.870;9.578;2023-03-24T02:21:11;3.20;;;2.00;;
3543;SDS011;1786;52.870;9.578;2023-03-24T02:26:23;4.33;;;2.37;;
3543;SDS011;1786;52.870;9.578;2023-03-24T02:39:43;2.97;;;1.80;;
3543;SDS011;1786;52.870;9.578;2023-03-24T02:42:38;2.17;;;1.97;;
3543;SDS011;1786;52.870;9.578;2023-03-24T02:47:51;3.30;;;2.03;;
3543;SDS011;1786;52.870;9.578;2023-03-24T02:50:28;2.60;;;1.87;;
3543;SDS011;1786;52.870;9.578;2023-03-24T02:53:11;2.30;;;2.10;;
3543;SDS011;1786;52.870;9.578;2023-03-24T02:56:11;3.53;;;2.13;;
3543;SDS011;1786;52.870;9.578;2023-03-24T02:58:46;5.07;;;2.80;;
3543;SDS011;1786;52.870;9.578;2023-03-24T03:01:29;2.73;;;2.50;;
3543;SDS011;1786;52.870;9.578;2023-03-24T03:04:31;2.40;;;2.20;;
3543;SDS011;1786;52.870;9.578;2023-03-24T03:07:07;3.57;;;1.87;;
3543;SDS011;1786;52.870;9.578;2023-03-24T03:09:55;2.33;;;1.70;;
3543;SDS011;1786;52.870;9.578;2023-03-24T03:12:33;3.13;;;2.17;;
3543;SDS011;1786;52.870;9.578;2023-03-24T03:15:08;2.50;;;1.40;;
3543;SDS011;1786;52.870;9.578;2023-03-24T03:17:41;2.33;;;2.00;;
3543;SDS011;1786;52.870;9.578;2023-03-24T03:20:12;2.17;;;1.93;;
3543;SDS011;1786;52.870;9.578;2023-03-24T03:23:23;5.30;;;1.90;;
3543;SDS011;1786;52.870;9.578;2023-03-24T03:25:34;1.80;;;1.70;;
3543;SDS011;1786;52.870;9.578;2023-03-24T03:28:07;3.30;;;1.90;;
3543;SDS011;1786;52.870;9.578;2023-03-24T03:30:46;1.90;;;1.80;;
3543;SDS011;1786;52.870;9.578;2023-03-24T03:33:17;4.33;;;1.77;;
3543;SDS011;1786;52.870;9.578;2023-03-24T03:35:54;2.07;;;1.80;;
3543;SDS011;1786;52.870;9.578;2023-03-24T03:38:24;3.63;;;1.77;;
3543;SDS011;1786;52.870;9.578;2023-03-24T03:41:01;5.33;;;2.10;;
3543;SDS011;1786;52.870;9.578;2023-03-24T03:43:36;2.67;;;1.90;;
3543;SDS011;1786;52.870;9.578;2023-03-24T03:46:15;4.30;;;1.77;;
3543;SDS011;1786;52.870;9.578;2023-03-24T03:48:46;2.70;;;1.60;;
3543;SDS011;1786;52.870;9.578;2023-03-24T03:51:16;1.87;;;1.50;;
3543;SDS011;1786;52.870;9.578;2023-03-24T03:53:55;5.60;;;2.03;;
3543;SDS011;1786;52.870;9.578;2023-03-24T03:56:26;2.67;;;1.90;;
3543;SDS011;1786;52.870;9.578;2023-03-24T03:59:25;3.33;;;2.07;;
3543;SDS011;1786;52.870;9.578;2023-03-24T04:01:54;1.87;;;1.77;;
3543;SDS011;1786;52.870;9.578;2023-03-24T04:13:31;2.13;;;2.03;;
3543;SDS011;1786;52.870;9.578;2023-03-24T04:19:16;2.27;;;2.13;;
3543;SDS011;1786;52.870;9.578;2023-03-24T04:22:05;2.10;;;1.73;;
3543;SDS011;1786;52.870;9.578;2023-03-24T04:24:53;1.43;;;1.33;;
3543;SDS011;1786;52.870;9.578;2023-03-24T04:27:26;2.10;;;1.40;;
3543;SDS011;1786;52.870;9.578;2023-03-24T04:36:02;3.23;;;1.63;;
3543;SDS011;1786;52.870;9.578;2023-03-24T04:38:51;1.73;;;1.63;;
3543;SDS011;1786;52.870;9.578;2023-03-24T04:41:32;2.93;;;1.60;;
3543;SDS011;1786;52.870;9.578;2023-03-24T04:44:15;3.03;;;1.60;;
3543;SDS011;1786;52.870;9.578;2023-03-24T04:47:14;1.60;;;1.50;;
3543;SDS011;1786;52.870;9.578;2023-03-24T04:50:02;3.20;;;1.80;;
3543;SDS011;1786;52.870;9.578;2023-03-24T04:52:39;2.37;;;1.57;;
3543;SDS011;1786;52.870;9.578;2023-03-24T04:55:31;1.50;;;1.50;;
3543;SDS011;1786;52.870;9.578;2023-03-24T04:58:06;1.43;;;1.30;;
3543;SDS011;1786;52.870;9.578;2023-03-24T05:00:40;1.53;;;1.50;;
3543;SDS011;1786;52.870;9.578;2023-03-24T05:03:15;1.60;;;1.50;;
3543;SDS011;1786;52.870;9.578;2023-03-24T05:05:46;1.90;;;1.73;;
3543;SDS011;1786;52.870;9.578;2023-03-24T05:08:17;2.27;;;1.60;;
3543;SDS011;1786;52.870;9.578;2023-03-24T05:10:45;1.63;;;1.53;;
3543;SDS011;1786;52.870;9.578;2023-03-24T05:13:13;1.63;;;1.63;;
3543;SDS011;1786;52.870;9.578;2023-03-24T05:15:51;1.63;;;1.53;;
3543;SDS011;1786;52.870;9.578;2023-03-24T05:18:42;3.10;;;1.73;;
3543;SDS011;1786;52.870;9.578;2023-03-24T05:21:21;1.43;;;1.37;;
3543;SDS011;1786;52.870;9.578;2023-03-24T05:23:51;6.77;;;1.83;;
3543;SDS011;1786;52.870;9.578;2023-03-24T05:26:19;1.70;;;1.60;;
3543;SDS011;1786;52.870;9.578;2023-03-24T05:29:05;1.60;;;1.50;;
3543;SDS011;1786;52.870;9.578;2023-03-24T05:31:38;2.87;;;1.70;;
3543;SDS011;1786;52.870;9.578;2023-03-24T05:34:13;1.57;;;1.57;;
3543;SDS011;1786;52.870;9.578;2023-03-24T05:37:14;2.13;;;1.70;;
3543;SDS011;1786;52.870;9.578;2023-03-24T05:39:51;1.50;;;1.40;;
3543;SDS011;1786;52.870;9.578;2023-03-24T05:42:42;1.23;;;1.23;;
3543;SDS011;1786;52.870;9.578;2023-03-24T05:45:10;2.00;;;1.90;;
3543;SDS011;1786;52.870;9.578;2023-03-24T05:47:38;3.67;;;2.23;;
3543;SDS011;1786;52.870;9.578;2023-03-24T05:50:08;2.13;;;2.03;;
3543;SDS011;1786;52.870;9.578;2023-03-24T05:52:38;2.00;;;1.90;;
3543;SDS011;1786;52.870;9.578;2023-03-24T05:55:38;2.33;;;2.10;;
3543;SDS011;1786;52.870;9.578;2023-03-24T05:58:23;2.40;;;2.20;;
3543;SDS011;1786;52.870;9.578;2023-03-24T06:00:54;5.40;;;2.80;;
3543;SDS011;1786;52.870;9.578;2023-03-24T06:03:31;2.63;;;2.53;;
3543;SDS011;1786;52.870;9.578;2023-03-24T06:06:18;2.13;;;2.03;;
3543;SDS011;1786;52.870;9.578;2023-03-24T06:08:45;2.93;;;2.40;;
3543;SDS011;1786;52.870;9.578;2023-03-24T06:11:14;3.10;;;2.20;;
3543;SDS011;1786;52.870;9.578;2023-03-24T06:13:50;3.00;;;2.20;;
3543;SDS011;1786;52.870;9.578;2023-03-24T06:16:17;4.83;;;2.50;;
3543;SDS011;1786;52.870;9.578;2023-03-24T06:18:56;5.03;;;2.67;;
3543;SDS011;1786;52.870;9.578;2023-03-24T06:21:48;2.43;;;2.17;;
3543;SDS011;1786;52.870;9.578;2023-03-24T06:24:20;2.60;;;2.50;;
3543;SDS011;1786;52.870;9.578;2023-03-24T06:26:52;4.23;;;2.60;;
3543;SDS011;1786;52.870;9.578;2023-03-24T06:29:25;2.00;;;1.93;;
3543;SDS011;1786;52.870;9.578;2023-03-24T06:31:58;2.40;;;2.20;;
3543;SDS011;1786;52.870;9.578;2023-03-24T06:34:27;2.20;;;2.10;;
3543;SDS011;1786;52.870;9.578;2023-03-24T06:37:11;2.60;;;2.40;;
3543;SDS011;1786;52.870;9.578;2023-03-24T06:39:42;2.53;;;2.27;;
3543;SDS011;1786;52.870;9.578;2023-03-24T06:42:20;2.40;;;2.30;;
3543;SDS011;1786;52.870;9.578;2023-03-24T06:44:48;2.10;;;1.90;;
3543;SDS011;1786;52.870;9.578;2023-03-24T06:47:15;2.30;;;2.10;;
3543;SDS011;1786;52.870;9.578;2023-03-24T06:50:04;1.97;;;1.87;;
3543;SDS011;1786;52.870;9.578;2023-03-24T06:52:34;2.00;;;1.97;;
3543;SDS011;1786;52.870;9.578;2023-03-24T06:55:02;1.73;;;1.73;;
3543;SDS011;1786;52.870;9.578;2023-03-24T06:57:30;2.77;;;1.80;;
3543;SDS011;1786;52.870;9.578;2023-03-24T07:00:32;1.13;;;1.13;;
3543;SDS011;1786;52.870;9.578;2023-03-24T07:03:19;1.40;;;1.30;;
3543;SDS011;1786;52.870;9.578;2023-03-24T07:06:08;1.07;;;1.07;;
3543;SDS011;1786;52.870;9.578;2023-03-24T07:09:00;1.70;;;1.60;;
3543;SDS011;1786;52.870;9.578;2023-03-24T07:11:28;1.20;;;1.20;;
3543;SDS011;1786;52.870;9.578;2023-03-24T07:13:58;1.43;;;1.33;;
3543;SDS011;1786;52.870;9.578;2023-03-24T07:16:26;1.40;;;1.40;;
3543;SDS011;1786;52.870;9.578;2023-03-24T07:19:16;1.50;;;1.50;;
3543;SDS011;1786;52.870;9.578;2023-03-24T07:22:04;1.70;;;1.60;;
3543;SDS011;1786;52.870;9.578;2023-03-24T07:24:53;1.90;;;1.80;;
3543;SDS011;1786;52.870;9.578;2023-03-24T07:27:37;1.30;;;1.30;;
3543;SDS011;1786;52.870;9.578;2023-03-24T07:30:22;2.60;;;1.37;;
3543;SDS011;1786;52.870;9.578;2023-03-24T07:32:59;1.50;;;1.27;;
3543;SDS011;1786;52.870;9.578;2023-03-24T07:35:29;1.47;;;1.37;;
3543;SDS011;1786;52.870;9.578;2023-03-24T07:38:15;2.10;;;1.30;;
3543;SDS011;1786;52.870;9.578;2023-03-24T07:40:44;2.80;;;1.10;;
3543;SDS011;1786;52.870;9.578;2023-03-24T07:43:11;1.00;;;0.90;;
3543;SDS011;1786;52.870;9.578;2023-03-24T07:46:01;2.10;;;1.00;;
3543;SDS011;1786;52.870;9.578;2023-03-24T07:48:32;2.30;;;1.00;;
3543;SDS011;1786;52.870;9.578;2023-03-24T07:51:00;1.50;;;1.03;;
3543;SDS011;1786;52.870;9.578;2023-03-24T07:53:47;3.73;;;1.27;;
3543;SDS011;1786;52.870;9.578;2023-03-24T07:56:32;2.70;;;1.20;;
3543;SDS011;1786;52.870;9.578;2023-03-24T07:59:00;2.43;;;1.13;;
3543;SDS011;1786;52.870;9.578;2023-03-24T08:01:42;3.97;;;1.50;;
3543;SDS011;1786;52.870;9.578;2023-03-24T08:04:17;0.90;;;0.90;;
3543;SDS011;1786;52.870;9.578;2023-03-24T08:06:59;1.73;;;1.27;;
3543;SDS011;1786;52.870;9.578;2023-03-24T08:09:31;1.17;;;1.10;;
3543;SDS011;1786;52.870;9.578;2023-03-24T08:12:02;2.47;;;1.13;;
3543;SDS011;1786;52.870;9.578;2023-03-24T08:14:46;3.93;;;1.30;;
3543;SDS011;1786;52.870;9.578;2023-03-24T08:17:14;3.87;;;1.10;;
3543;SDS011;1786;52.870;9.578;2023-03-24T08:19:41;2.40;;;1.13;;
3543;SDS011;1786;52.870;9.578;2023-03-24T08:22:25;3.53;;;1.67;;
3543;SDS011;1786;52.870;9.578;2023-03-24T08:24:52;1.70;;;0.93;;
3543;SDS011;1786;52.870;9.578;2023-03-24T08:27:20;2.63;;;1.20;;
3543;SDS011;1786;52.870;9.578;2023-03-24T08:29:50;1.43;;;1.00;;
3543;SDS011;1786;52.870;9.578;2023-03-24T08:32:26;1.60;;;1.20;;
3543;SDS011;1786;52.870;9.578;2023-03-24T08:34:57;1.33;;;1.20;;
3543;SDS011;1786;52.870;9.578;2023-03-24T08:37:31;3.00;;;1.10;;
3543;SDS011;1786;52.870;9.578;2023-03-24T08:40:03;2.63;;;1.13;;
3543;SDS011;1786;52.870;9.578;2023-03-24T08:42:33;4.93;;;1.30;;
3543;SDS011;1786;52.870;9.578;2023-03-24T08:45:01;1.30;;;1.10;;
3543;SDS011;1786;52.870;9.578;2023-03-24T08:47:28;3.13;;;1.20;;
3543;SDS011;1786;52.870;9.578;2023-03-24T08:49:58;3.13;;;1.10;;
3543;SDS011;1786;52.870;9.578;2023-03-24T08:52:26;2.90;;;1.20;;
3543;SDS011;1786;52.870;9.578;2023-03-24T08:54:54;4.40;;;1.40;;
3543;SDS011;1786;52.870;9.578;2023-03-24T08:57:25;0.93;;;0.93;;
3543;SDS011;1786;52.870;9.578;2023-03-24T08:59:53;2.40;;;1.07;;
3543;SDS011;1786;52.870;9.578;2023-03-24T09:02:21;1.47;;;1.00;;
3543;SDS011;1786;52.870;9.578;2023-03-24T09:04:49;2.73;;;1.10;;
3543;SDS011;1786;52.870;9.578;2023-03-24T09:07:23;1.27;;;1.10;;
3543;SDS011;1786;52.870;9.578;2023-03-24T09:09:51;5.40;;;1.60;;
3543;SDS011;1786;52.870;9.578;2023-03-24T09:12:18;3.43;;;1.80;;
3543;SDS011;1786;52.870;9.578;2023-03-24T09:14:47;3.23;;;1.10;;
3543;SDS011;1786;52.870;9.578;2023-03-24T09:17:17;6.70;;;2.60;;
3543;SDS011;1786;52.870;9.578;2023-03-24T09:19:45;1.13;;;1.03;;
3543;SDS011;1786;52.870;9.578;2023-03-24T09:22:13;3.80;;;1.23;;
3543;SDS011;1786;52.870;9.578;2023-03-24T09:24:41;4.63;;;1.17;;
3543;SDS011;1786;52.870;9.578;2023-03-24T09:27:11;2.73;;;1.23;;
3543;SDS011;1786;52.870;9.578;2023-03-24T09:29:43;4.87;;;1.30;;
3543;SDS011;1786;52.870;9.578;2023-03-24T09:32:11;3.60;;;1.60;;
3543;SDS011;1786;52.870;9.578;2023-03-24T09:34:39;6.53;;;1.53;;
3543;SDS011;1786;52.870;9.578;2023-03-24T09:37:06;5.60;;;1.50;;
3543;SDS011;1786;52.870;9.578;2023-03-24T09:39:35;3.00;;;1.60;;
3543;SDS011;1786;52.870;9.578;2023-03-24T09:42:05;3.47;;;1.70;;
3543;SDS011;1786;52.870;9.578;2023-03-24T09:44:39;4.90;;;1.90;;
3543;SDS011;1786;52.870;9.578;2023-03-24T09:49:48;4.03;;;1.43;;
3543;SDS011;1786;52.870;9.578;2023-03-24T09:52:35;4.23;;;1.43;;
3543;SDS011;1786;52.870;9.578;2023-03-24T09:55:11;4.67;;;1.80;;
3543;SDS011;1786;52.870;9.578;2023-03-24T09:57:44;2.37;;;1.77;;
3543;SDS011;1786;52.870;9.578;2023-03-24T10:02:44;8.83;;;2.60;;
3543;SDS011;1786;52.870;9.578;2023-03-24T10:05:29;3.63;;;1.40;;
3543;SDS011;1786;52.870;9.578;2023-03-24T10:08:03;2.80;;;1.40;;
3543;SDS011;1786;52.870;9.578;2023-03-24T10:10:41;3.07;;;1.47;;
3543;SDS011;1786;52.870;9.578;2023-03-24T10:13:21;6.23;;;2.03;;
3543;SDS011;1786;52.870;9.578;2023-03-24T10:16:15;4.80;;;1.70;;
3543;SDS011;1786;52.870;9.578;2023-03-24T10:18:42;3.50;;;1.37;;
3543;SDS011;1786;52.870;9.578;2023-03-24T10:26:37;6.60;;;1.90;;
3543;SDS011;1786;52.870;9.578;2023-03-24T10:31:55;6.63;;;1.83;;
3543;SDS011;1786;52.870;9.578;2023-03-24T10:34:27;6.80;;;1.60;;
3543;SDS011;1786;52.870;9.578;2023-03-24T10:36:57;11.33;;;2.20;;
3543;SDS011;1786;52.870;9.578;2023-03-24T10:39:27;3.33;;;1.70;;
3543;SDS011;1786;52.870;9.578;2023-03-24T10:41:59;6.17;;;1.87;;
3543;SDS011;1786;52.870;9.578;2023-03-24T10:44:33;6.17;;;1.70;;
3543;SDS011;1786;52.870;9.578;2023-03-24T10:47:08;6.33;;;2.07;;
3543;SDS011;1786;52.870;9.578;2023-03-24T10:49:41;5.63;;;2.10;;
3543;SDS011;1786;52.870;9.578;2023-03-24T10:52:18;8.30;;;2.23;;
3543;SDS011;1786;52.870;9.578;2023-03-24T10:54:59;11.73;;;1.90;;
3543;SDS011;1786;52.870;9.578;2023-03-24T10:57:33;6.03;;;1.80;;
3543;SDS011;1786;52.870;9.578;2023-03-24T11:00:06;7.10;;;1.93;;
3543;SDS011;1786;52.870;9.578;2023-03-24T11:02:44;4.73;;;1.93;;
3543;SDS011;1786;52.870;9.578;2023-03-24T11:05:24;13.57;;;2.27;;
3543;SDS011;1786;52.870;9.578;2023-03-24T11:07:57;7.23;;;2.60;;
3543;SDS011;1786;52.870;9.578;2023-03-24T11:10:29;7.93;;;3.10;;
3543;SDS011;1786;52.870;9.578;2023-03-24T11:13:00;10.30;;;2.57;;
3543;SDS011;1786;52.870;9.578;2023-03-24T11:15:31;6.53;;;1.93;;
3543;SDS011;1786;52.870;9.578;2023-03-24T11:18:04;9.17;;;2.60;;
3543;SDS011;1786;52.870;9.578;2023-03-24T11:20:37;5.10;;;1.50;;
3543;SDS011;1786;52.870;9.578;2023-03-24T11:23:14;6.10;;;1.93;;
3543;SDS011;1786;52.870;9.578;2023-03-24T11:25:52;10.97;;;2.53;;
3543;SDS011;1786;52.870;9.578;2023-03-24T11:28:30;4.40;;;2.10;;
3543;SDS011;1786;52.870;9.578;2023-03-24T11:31:05;13.63;;;2.37;;
3543;SDS011;1786;52.870;9.578;2023-03-24T11:33:40;3.50;;;1.90;;
3543;SDS011;1786;52.870;9.578;2023-03-24T11:36:51;5.67;;;2.03;;
3543;SDS011;1786;52.870;9.578;2023-03-24T11:39:11;6.17;;;1.73;;
3543;SDS011;1786;52.870;9.578;2023-03-24T11:44:32;8.80;;;2.20;;
3543;SDS011;1786;52.870;9.578;2023-03-24T11:49:47;5.80;;;1.90;;
3543;SDS011;1786;52.870;9.578;2023-03-24T11:52:26;14.17;;;2.57;;
3543;SDS011;1786;52.870;9.578;2023-03-24T11:54:54;5.07;;;2.03;;
3543;SDS011;1786;52.870;9.578;2023-03-24T11:57:32;8.07;;;2.63;;
3543;SDS011;1786;52.870;9.578;2023-03-24T12:02:44;4.83;;;2.07;;
3543;SDS011;1786;52.870;9.578;2023-03-24T12:10:28;8.77;;;2.07;;
3543;SDS011;1786;52.870;9.578;2023-03-24T12:13:06;5.00;;;2.03;;
3543;SDS011;1786;52.870;9.578;2023-03-24T12:15:59;4.13;;;1.90;;
3543;SDS011;1786;52.870;9.578;2023-03-24T12:21:32;7.93;;;2.40;;
3543;SDS011;1786;52.870;9.578;2023-03-24T12:26:41;4.03;;;2.00;;
3543;SDS011;1786;52.870;9.578;2023-03-24T12:29:22;2.97;;;2.00;;
3543;SDS011;1786;52.870;9.578;2023-03-24T12:43:18;5.50;;;1.87;;
3543;SDS011;1786;52.870;9.578;2023-03-24T12:45:53;5.90;;;2.17;;
3543;SDS011;1786;52.870;9.578;2023-03-24T12:53:33;3.27;;;1.90;;
3543;SDS011;1786;52.870;9.578;2023-03-24T12:56:07;5.77;;;1.83;;
3543;SDS011;1786;52.870;9.578;2023-03-24T12:58:49;7.20;;;1.87;;
3543;SDS011;1786;52.870;9.578;2023-03-24T13:01:26;8.77;;;2.03;;
3543;SDS011;1786;52.870;9.578;2023-03-24T13:06:40;14.37;;;2.70;;
3543;SDS011;1786;52.870;9.578;2023-03-24T13:09:12;4.80;;;1.63;;
3543;SDS011;1786;52.870;9.578;2023-03-24T13:11:45;5.77;;;1.97;;
3543;SDS011;1786;52.870;9.578;2023-03-24T13:14:15;5.97;;;2.23;;
3543;SDS011;1786;52.870;9.578;2023-03-24T13:16:47;5.23;;;1.90;;
3543;SDS011;1786;52.870;9.578;2023-03-24T13:19:17;8.67;;;2.77;;
3543;SDS011;1786;52.870;9.578;2023-03-24T13:21:46;7.73;;;2.10;;
3543;SDS011;1786;52.870;9.578;2023-03-24T13:24:13;7.17;;;2.17;;
3543;SDS011;1786;52.870;9.578;2023-03-24T13:26:51;3.00;;;1.47;;
3543;SDS011;1786;52.870;9.578;2023-03-24T13:32:14;9.00;;;1.77;;
3543;SDS011;1786;52.870;9.578;2023-03-24T13:34:46;2.50;;;1.80;;
3543;SDS011;1786;52.870;9.578;2023-03-24T13:37:22;5.53;;;1.97;;
3543;SDS011;1786;52.870;9.578;2023-03-24T13:39:52;6.17;;;1.40;;
3543;SDS011;1786;52.870;9.578;2023-03-24T13:44:51;7.63;;;2.90;;
3543;SDS011;1786;52.870;9.578;2023-03-24T13:47:18;8.20;;;1.60;;
3543;SDS011;1786;52.870;9.578;2023-03-24T13:49:58;2.90;;;1.57;;
3543;SDS011;1786;52.870;9.578;2023-03-24T13:52:31;5.37;;;2.10;;
3543;SDS011;1786;52.870;9.578;2023-03-24T13:54:59;7.83;;;2.30;;
3543;SDS011;1786;52.870;9.578;2023-03-24T13:57:26;6.77;;;1.60;;
3543;SDS011;1786;52.870;9.578;2023-03-24T14:02:41;4.00;;;2.03;;
3543;SDS011;1786;52.870;9.578;2023-03-24T14:05:31;8.53;;;2.60;;
3543;SDS011;1786;52.870;9.578;2023-03-24T14:10:28;5.90;;;2.43;;
3543;SDS011;1786;52.870;9.578;2023-03-24T14:13:02;3.43;;;2.10;;
3543;SDS011;1786;52.870;9.578;2023-03-24T14:15:32;9.53;;;2.20;;
3543;SDS011;1786;52.870;9.578;2023-03-24T14:21:03;9.50;;;2.17;;
3543;SDS011;1786;52.870;9.578;2023-03-24T14:23:34;9.13;;;2.43;;
3543;SDS011;1786;52.870;9.578;2023-03-24T14:26:03;5.70;;;2.53;;
3543;SDS011;1786;52.870;9.578;2023-03-24T14:28:31;7.30;;;2.50;;
3543;SDS011;1786;52.870;9.578;2023-03-24T14:33:25;4.67;;;1.50;;
3543;SDS011;1786;52.870;9.578;2023-03-24T14:35:56;5.47;;;1.67;;
3543;SDS011;1786;52.870;9.578;2023-03-24T14:38:23;7.87;;;1.77;;
3543;SDS011;1786;52.870;9.578;2023-03-24T14:40:51;5.37;;;1.63;;
3543;SDS011;1786;52.870;9.578;2023-03-24T14:46:49;3.10;;;1.77;;
3543;SDS011;1786;52.870;9.578;2023-03-24T14:48:57;3.53;;;1.50;;
3543;SDS011;1786;52.870;9.578;2023-03-24T14:54:15;6.20;;;1.90;;
3543;SDS011;1786;52.870;9.578;2023-03-24T14:56:44;5.70;;;1.67;;
3543;SDS011;1786;52.870;9.578;2023-03-24T14:59:21;4.03;;;1.80;;
3543;SDS011;1786;52.870;9.578;2023-03-24T15:01:51;5.73;;;1.93;;
3543;SDS011;1786;52.870;9.578;2023-03-24T15:04:24;6.87;;;1.83;;
3543;SDS011;1786;52.870;9.578;2023-03-24T15:06:51;9.00;;;1.87;;
3543;SDS011;1786;52.870;9.578;2023-03-24T15:09:18;4.17;;;1.63;;
3543;SDS011;1786;52.870;9.578;2023-03-24T15:11:45;3.37;;;1.30;;
3543;SDS011;1786;52.870;9.578;2023-03-24T15:14:15;2.87;;;1.20;;
3543;SDS011;1786;52.870;9.578;2023-03-24T15:16:49;4.40;;;1.87;;
3543;SDS011;1786;52.870;9.578;2023-03-24T15:19:20;4.10;;;1.50;;
3543;SDS011;1786;52.870;9.578;2023-03-24T15:21:48;6.13;;;1.77;;
3543;SDS011;1786;52.870;9.578;2023-03-24T15:26:48;2.90;;;1.53;;
3543;SDS011;1786;52.870;9.578;2023-03-24T15:29:14;5.73;;;1.80;;
3543;SDS011;1786;52.870;9.578;2023-03-24T15:31:41;5.90;;;1.93;;
3543;SDS011;1786;52.870;9.578;2023-03-24T15:36:59;4.80;;;1.40;;
3543;SDS011;1786;52.870;9.578;2023-03-24T15:39:28;7.20;;;1.87;;
3543;SDS011;1786;52.870;9.578;2023-03-24T15:41:55;3.20;;;1.50;;
3543;SDS011;1786;52.870;9.578;2023-03-24T15:44:25;6.27;;;1.60;;
3543;SDS011;1786;52.870;9.578;2023-03-24T15:46:54;7.17;;;1.93;;
3543;SDS011;1786;52.870;9.578;2023-03-24T15:49:23;6.30;;;1.50;;
3543;SDS011;1786;52.870;9.578;2023-03-24T15:51:51;6.30;;;1.40;;
3543;SDS011;1786;52.870;9.578;2023-03-24T15:54:24;1.83;;;1.30;;
3543;SDS011;1786;52.870;9.578;2023-03-24T15:56:58;2.90;;;1.40;;
3543;SDS011;1786;52.870;9.578;2023-03-24T15:59:31;2.20;;;1.40;;
3543;SDS011;1786;52.870;9.578;2023-03-24T16:01:58;4.20;;;1.50;;
3543;SDS011;1786;52.870;9.578;2023-03-24T16:04:24;2.33;;;1.50;;
3543;SDS011;1786;52.870;9.578;2023-03-24T16:06:53;2.83;;;1.27;;
3543;SDS011;1786;52.870;9.578;2023-03-24T16:09:22;5.40;;;1.30;;
3543;SDS011;1786;52.870;9.578;2023-03-24T16:11:52;2.70;;;1.10;;
3543;SDS011;1786;52.870;9.578;2023-03-24T16:14:24;3.53;;;1.60;;
3543;SDS011;1786;52.870;9.578;2023-03-24T16:16:52;1.53;;;1.43;;
3543;SDS011;1786;52.870;9.578;2023-03-24T16:19:19;3.37;;;1.30;;
3543;SDS011;1786;52.870;9.578;2023-03-24T16:21:45;2.30;;;1.37;;
3543;SDS011;1786;52.870;9.578;2023-03-24T16:24:12;1.87;;;1.20;;
3543;SDS011;1786;52.870;9.578;2023-03-24T16:26:38;4.80;;;1.10;;
3543;SDS011;1786;52.870;9.578;2023-03-24T16:31:31;2.77;;;1.20;;
3543;SDS011;1786;52.870;9.578;2023-03-24T16:34:00;4.30;;;1.60;;
3543;SDS011;1786;52.870;9.578;2023-03-24T16:36:26;1.60;;;1.50;;
3543;SDS011;1786;52.870;9.578;2023-03-24T16:38:53;2.40;;;1.60;;
3543;SDS011;1786;52.870;9.578;2023-03-24T16:41:20;3.30;;;2.10;;
3543;SDS011;1786;52.870;9.578;2023-03-24T16:43:47;2.43;;;1.53;;
3543;SDS011;1786;52.870;9.578;2023-03-24T16:46:15;2.53;;;1.40;;
3543;SDS011;1786;52.870;9.578;2023-03-24T16:48:42;3.13;;;1.10;;
3543;SDS011;1786;52.870;9.578;2023-03-24T16:51:10;8.27;;;1.70;;
3543;SDS011;1786;52.870;9.578;2023-03-24T16:53:38;3.43;;;1.60;;
3543;SDS011;1786;52.870;9.578;2023-03-24T16:56:04;3.27;;;1.10;;
3543;SDS011;1786;52.870;9.578;2023-03-24T16:58:31;3.90;;;1.10;;
3543;SDS011;1786;52.870;9.578;2023-03-24T17:00:57;2.43;;;1.20;;
3543;SDS011;1786;52.870;9.578;2023-03-24T17:03:24;3.07;;;0.97;;
3543;SDS011;1786;52.870;9.578;2023-03-24T17:05:55;2.60;;;1.10;;
3543;SDS011;1786;52.870;9.578;2023-03-24T17:08:22;2.60;;;1.23;;
3543;SDS011;1786;52.870;9.578;2023-03-24T17:10:50;2.47;;;0.80;;
3543;SDS011;1786;52.870;9.578;2023-03-24T17:13:19;1.93;;;0.83;;
3543;SDS011;1786;52.870;9.578;2023-03-24T17:15:46;0.70;;;0.70;;
3543;SDS011;1786;52.870;9.578;2023-03-24T17:18:13;3.30;;;3.00;;
3543;SDS011;1786;52.870;9.578;2023-03-24T17:20:40;3.20;;;1.00;;
3543;SDS011;1786;52.870;9.578;2023-03-24T17:23:07;1.53;;;1.07;;
3543;SDS011;1786;52.870;9.578;2023-03-24T17:25:34;1.60;;;0.87;;
3543;SDS011;1786;52.870;9.578;2023-03-24T17:28:00;1.03;;;0.70;;
3543;SDS011;1786;52.870;9.578;2023-03-24T17:30:28;1.63;;;0.90;;
3543;SDS011;1786;52.870;9.578;2023-03-24T17:32:54;1.00;;;0.90;;
3543;SDS011;1786;52.870;9.578;2023-03-24T17:35:23;0.97;;;0.83;;
3543;SDS011;1786;52.870;9.578;2023-03-24T17:37:49;1.77;;;0.80;;
3543;SDS011;1786;52.870;9.578;2023-03-24T17:40:19;1.03;;;0.80;;
3543;SDS011;1786;52.870;9.578;2023-03-24T17:42:46;1.37;;;0.70;;
3543;SDS011;1786;52.870;9.578;2023-03-24T17:45:16;0.63;;;0.63;;
3543;SDS011;1786;52.870;9.578;2023-03-24T17:47:43;0.93;;;0.80;;
3543;SDS011;1786;52.870;9.578;2023-03-24T17:50:10;1.43;;;1.00;;
3543;SDS011;1786;52.870;9.578;2023-03-24T17:52:44;1.10;;;1.10;;
3543;SDS011;1786;52.870;9.578;2023-03-24T17:55:11;1.37;;;1.27;;